Weather observations for the past three days for
Conway Horry County Airport
Imperial (Metric)
Date Time (edt) Wind (mph) Vis. (mi.) Weather Sky Cond. Temperature (ºF) Relative Humidity Wind Chill (°F) Heat Index (°F) Pressure Precipitation (in)
Air Dwpt 6 hour altimeter (in) sea level (mb) 1 hr 3 hr 6 hr
Max. Min.
06 05:15 Calm 7.00 Fair CLR 51.8 51.8 100% 30.01 0.0
06 04:55 Calm 10.00 Fair CLR 51.8 51.8 100% 30 0.0
06 04:35 Calm 10.00 Fair CLR 53.6 53.6 100% 30 0.0
06 04:15 Calm 10.00 Fair CLR 53.6 53.6 100% 30.01 0.0
06 03:55 Calm 10.00 Fair CLR 53.6 53.6 100% 30 0.0
06 03:35 Calm 10.00 Fair CLR 53.6 53.6 100% 30 0.0
06 03:15 Calm 10.00 Fair CLR 53.6 53.6 100% 30 0.0
06 02:55 Calm 10.00 Fair CLR 53.6 51.8 94% 30 0.0
06 02:35 Calm 10.00 Fair CLR 51.8 51.8 100% 29.99 0.0
06 02:15 Calm 10.00 Fair CLR 51.8 51.8 100% 30 0.0
06 01:55 Calm 10.00 Fair CLR 51.8 51.8 100% 30.01 0.0
06 01:35 Calm 10.00 Fair CLR 51.8 51.8 100% 30.02 0.0
06 01:15 Calm 10.00 Fair CLR 51.8 51.8 100% 30.03 0.0
06 00:55 Calm 5.00 Fog/Mist CLR 51.8 51.8 100% 30.04 0.0
06 00:35 Calm 10.00 Fair CLR 53.6 53.6 100% 30.04 0.0
06 00:15 Calm 10.00 Fair CLR 53.6 53.6 100% 30.04 0.0
05 23:55 Calm 10.00 Fair CLR 53.6 53.6 100% 30.04 0.0
05 23:35 Calm 10.00 Fair CLR 55.4 53.6 94% 30.04 0.0
05 23:15 Calm 10.00 Fair CLR 55.4 55.4 100% 30.05 0.0
05 22:55 Calm 10.00 Fair CLR 55.4 55.4 100% 30.05 0.0
05 22:35 Calm 10.00 Fair CLR 59 55.4 88% 30.05 0.0
05 22:15 Calm 10.00 Fair CLR 59 55.4 88% 30.05 0.0
05 21:55 Calm 10.00 Fair CLR 62.6 55.4 77% 30.04 0.0
05 21:35 S 3 10.00 Fair CLR 62.6 55.4 77% 30.04 0.0
05 21:15 S 3 10.00 Fair CLR 64.4 55.4 73% 30.04 0.0
05 20:55 S 6 10.00 Fair CLR 64.4 55.4 73% 30.03 0.0
05 20:35 S 5 10.00 Fair CLR 66.2 55.4 68% 30.03 0.0
05 20:15 S 7 10.00 Fair CLR 68 55.4 64% 30.03 0.0
05 19:55 S 5 10.00 Fair CLR 68 55.4 64% 30.03 0.0
05 19:35 S 8 10.00 Fair CLR 69.8 55.4 60% 30.03 0.0
05 19:15 S 10 G 16 10.00 Fair CLR 69.8 55.4 60% 30.02 0.0
05 18:55 S 8 G 16 10.00 Fair CLR 71.6 55.4 57% 30.02 0.0
05 18:35 SE 10 G 18 10.00 Fair CLR 71.6 53.6 53% 30.02 0.0
05 18:15 S 9 10.00 Fair CLR 73.4 53.6 50% 30.02 0.0
05 17:55 S 13 G 17 10.00 Fair CLR 73.4 53.6 50% 30.02 0.0
05 17:35 S 10 10.00 Fair CLR 73.4 53.6 50% 30.02 0.0
05 17:15 SE 10 G 16 10.00 Fair CLR 73.4 53.6 50% 30.02 0.0
05 16:55 S 10 G 17 10.00 Fair CLR 73.4 53.6 50% 30.02 0.0
05 16:35 S 10 G 16 10.00 Fair CLR 75.2 53.6 47% 78 30.03 0.0
05 16:15 S 12 G 20 10.00 Fair CLR 77 53.6 44% 78 30.03 0.0
05 15:55 SE 12 G 18 10.00 Fair CLR 77 55.4 47% 79 30.03 0.0
05 15:35 S 10 G 17 10.00 Fair CLR 77 53.6 44% 78 30.04 0.0
05 15:15 S 10 G 16 10.00 Fair CLR 77 55.4 47% 79 30.04 0.0
05 14:55 SE 9 G 20 10.00 Fair CLR 77 55.4 47% 79 30.05 0.0
05 14:35 S 13 G 16 10.00 Fair CLR 77 55.4 47% 79 30.05 0.0
05 14:15 S 8 G 16 10.00 Partly Cloudy SCT048 SCT055 77 53.6 44% 78 30.05 0.0
05 13:55 E 9 10.00 Partly Cloudy SCT048 SCT055 75.2 53.6 47% 78 30.05 0.0
05 13:35 SE 10 G 17 10.00 Partly Cloudy SCT048 77 53.6 44% 78 30.06 0.0
05 13:15 SE 6 G 16 10.00 Partly Cloudy SCT048 75.2 53.6 47% 78 30.07 0.0
05 12:55 S 8 10.00 Partly Cloudy SCT048 75.2 53.6 47% 78 30.07 0.0
05 12:35 S 8 10.00 Partly Cloudy SCT046 73.4 53.6 50% 30.08 0.0
05 12:15 S 6 10.00 Partly Cloudy SCT044 73.4 53.6 50% 30.08 0.0
05 11:35 SW 6 10.00 Partly Cloudy SCT042 73.4 55.4 53% 30.09 0.0
05 11:15 SE 6 10.00 Fair CLR 71.6 53.6 53% 30.09 0.0
05 10:55 S 7 10.00 Fair CLR 71.6 53.6 53% 30.09 0.0
05 10:35 S 7 10.00 Fair CLR 71.6 55.4 57% 30.09 0.0
05 10:15 S 7 10.00 Fair CLR 71.6 55.4 57% 30.09 0.0
05 09:55 SW 7 10.00 Fair CLR 69.8 55.4 60% 30.09 0.0
05 09:35 SW 6 10.00 Fair CLR 69.8 55.4 60% 30.09 0.0
05 09:15 S 6 10.00 Fair CLR 68 55.4 64% 30.09 0.0
05 08:55 SW 5 10.00 Fair CLR 64.4 57.2 78% 30.09 0.0
05 08:35 Calm 10.00 Fair CLR 62.6 55.4 77% 30.09 0.0
05 08:15 Calm 10.00 Fair CLR 57.2 55.4 94% 30.08 0.0
05 07:55 Calm 10.00 Fair CLR 53.6 51.8 94% 30.08 0.0
05 07:35 Calm 10.00 Fair CLR 50 48.2 94% 30.07 0.0
05 07:15 Calm 10.00 Fair CLR 46.4 46.4 100% 30.07 0.0
05 06:55 Calm 10.00 Fair CLR 44.6 44.6 100% 30.06 0.0
05 06:35 Calm 10.00 Fair CLR 44.6 44.6 100% 30.05 0.0
05 06:15 Calm 10.00 Fair CLR 44.6 44.6 100% 30.05 0.0
05 05:50 Calm 10.00 Fair CLR 44.6 44.6 100% 30.04 0.0
05 05:35 Calm 10.00 Fair CLR 46.4 46.4 100% 30.04 0.0
05 05:15 Calm 7.00 Fair CLR 44.6 44.6 100% 30.04 0.0
05 04:55 Calm 10.00 Fair CLR 46.4 46.4 100% 30.03 0.0
05 04:35 Calm 10.00 Fair CLR 46.4 44.6 93% 30.03 0.0
05 04:15 Calm 10.00 Fair CLR 46.4 46.4 100% 30.03 0.0
05 03:55 Calm 10.00 Fair CLR 46.4 46.4 100% 30.03 0.0
05 03:35 Calm 10.00 Fair CLR 46.4 46.4 100% 30.03 0.0
05 03:15 Calm 10.00 Fair CLR 46.4 46.4 100% 30.03 0.0
05 02:55 Calm 10.00 Fair CLR 46.4 46.4 100% 30.03 0.0
05 02:35 Calm 10.00 Fair CLR 46.4 46.4 100% 30.03 0.0
05 02:15 Calm 10.00 Fair CLR 46.4 46.4 100% 30.04 0.0
05 01:55 Calm 10.00 Fair CLR 48.2 48.2 100% 30.04 0.0
05 01:35 Calm 10.00 Fair CLR 50 48.2 94% 30.05 0.0
05 01:15 Calm 10.00 Fair CLR 50 48.2 94% 30.05 0.0
05 00:55 Calm 10.00 Fair CLR 50 48.2 94% 30.06 0.0
05 00:35 Calm 10.00 Fair CLR 51.8 50 94% 30.06 0.0
05 00:15 Calm 10.00 Fair CLR 51.8 50 94% 30.06 0.0
04 23:55 Calm 10.00 Fair CLR 51.8 50 94% 30.05 0.0
04 23:35 Calm 10.00 Fair CLR 51.8 50 94% 30.06 0.0
04 23:15 Calm 10.00 Fair CLR 51.8 50 94% 30.06 0.0
04 22:55 Calm 10.00 Fair CLR 53.6 48.2 82% 30.06 0.0
04 22:35 Calm 10.00 Fair CLR 53.6 50 88% 30.05 0.0
04 22:15 Calm 10.00 Fair CLR 55.4 50 82% 30.06 0.0
04 21:55 Calm 10.00 Fair CLR 59 50 72% 30.05 0.0
04 21:35 Calm 10.00 Fair CLR 60.8 50 68% 30.05 0.0
04 21:15 Calm 10.00 Fair CLR 60.8 50 68% 30.04 0.0
04 20:55 Calm 10.00 Fair CLR 62.6 50 64% 30.04 0.0
04 20:35 S 3 10.00 Fair CLR 64.4 50 60% 30.04 0.0
04 20:15 S 5 10.00 Fair CLR 64.4 50 60% 30.03 0.0
04 19:55 S 7 10.00 Fair CLR 66.2 50 56% 30.03 0.0
04 19:35 S 8 10.00 Fair CLR 68 50 53% 30.02 0.0
04 19:15 S 10 10.00 Fair CLR 69.8 48.2 46% 30.01 0.0
04 18:55 S 10 G 17 10.00 Fair CLR 69.8 46.4 43% 30.02 0.0
04 18:35 S 13 G 18 10.00 Fair CLR 69.8 44.6 40% 30.01 0.0
04 18:15 S 10 G 21 10.00 Fair CLR 71.6 44.6 38% 30.01 0.0
04 17:55 S 10 G 17 10.00 Fair CLR 71.6 48.2 44% 30.01 0.0
04 17:35 SE 10 G 16 10.00 Fair CLR 71.6 48.2 44% 30.01 0.0
04 17:15 SE 12 G 17 10.00 Fair CLR 73.4 48.2 41% 30.01 0.0
04 16:55 S 10 G 21 10.00 Fair CLR 73.4 48.2 41% 30.01 0.0
04 16:35 S 12 G 17 10.00 Fair CLR 73.4 50 44% 30.01 0.0
04 16:15 S 10 G 20 10.00 Fair CLR 73.4 50 44% 30.02 0.0
04 15:55 S 13 G 17 10.00 Fair CLR 73.4 51.8 47% 30.02 0.0
04 15:35 SE 10 G 17 10.00 Fair CLR 75.2 51.8 44% 78 30.02 0.0
04 15:15 S 9 G 16 10.00 Fair CLR 77 51.8 42% 78 30.03 0.0
04 14:55 SE 6 10.00 Fair CLR 75.2 51.8 44% 78 30.04 0.0
04 14:35 S 8 10.00 Fair CLR 75.2 42.8 31% 77 30.04 0.0
04 14:15 S 9 10.00 Fair CLR 75.2 44.6 34% 77 30.05 0.0
04 13:55 SE 7 10.00 Fair CLR 73.4 44.6 36% 30.05 0.0
04 13:35 S 9 10.00 Fair CLR 73.4 44.6 36% 30.05 0.0
04 13:15 W 3 10.00 Fair CLR 73.4 44.6 36% 30.06 0.0
04 12:55 Calm 10.00 Fair CLR 71.6 44.6 38% 30.06 0.0
04 12:35 NW 3 10.00 Fair CLR 71.6 42.8 36% 30.07 0.0
04 12:15 S 8 10.00 Fair CLR 71.6 44.6 38% 30.07 0.0
04 11:55 SW 6 10.00 Fair CLR 71.6 44.6 38% 30.08 0.0
04 11:35 S 7 10.00 Fair CLR 71.6 46.4 41% 30.08 0.0
04 11:15 SW 7 10.00 Fair CLR 69.8 48.2 46% 30.09 0.0
04 10:55 SW 6 10.00 Fair CLR 69.8 50 50% 30.09 0.0
04 10:35 W 7 10.00 Fair CLR 69.8 50 50% 30.09 0.0
04 10:15 SW 5 10.00 Fair CLR 68 50 53% 30.09 0.0
04 09:55 SW 6 10.00 Fair CLR 66.2 51.8 60% 30.09 0.0
04 09:35 SW 8 10.00 Fair CLR 64.4 51.8 64% 30.09 0.0
04 09:15 W 6 10.00 Fair CLR 64.4 51.8 64% 30.09 0.0
04 08:55 SW 5 10.00 Fair CLR 60.8 51.8 72% 30.09 0.0
04 08:35 Calm 10.00 Fair CLR 57.2 51.8 82% 30.09 0.0
04 07:55 Calm 10.00 Fair CLR 50 48.2 94% 30.09 0.0
04 07:35 Calm 10.00 Fair CLR 46.4 44.6 93% 30.09 0.0
04 07:15 Calm 10.00 Fair CLR 44.6 44.6 100% 30.09 0.0
04 06:55 Calm 10.00 Fair CLR 42.8 42.8 100% 30.09 0.0
04 06:35 Calm 10.00 Fair CLR 42.8 42.8 100% 30.08 0.0
04 06:15 Calm 5.00 Fog/Mist CLR 41 41 100% 30.08 0.0
04 05:55 Calm 10.00 Fair CLR 42.8 42.8 100% 30.07 0.0
04 05:35 Calm 10.00 Fair CLR 41 41 100% 30.07 0.0
04 05:15 Calm 10.00 Fair CLR 42.8 42.8 100% 30.07 0.0
04 04:55 Calm 10.00 Fair CLR 42.8 42.8 100% 30.07 0.0
04 04:35 Calm 10.00 Fair CLR 42.8 42.8 100% 30.08 0.0
04 04:15 Calm 10.00 Fair CLR 42.8 42.8 100% 30.08 0.0
04 03:55 Calm 10.00 Fair CLR 42.8 42.8 100% 30.09 0.0
04 03:35 Calm 10.00 Fair CLR 44.6 42.8 93% 30.09 0.0
04 03:15 Calm 10.00 Fair CLR 42.8 42.8 100% 30.09 0.0
04 02:55 Calm 10.00 Fair CLR 44.6 42.8 93% 30.09 0.0
04 02:35 Calm 10.00 Fair CLR 44.6 44.6 100% 30.09 0.0
04 02:15 Calm 10.00 Fair CLR 44.6 44.6 100% 30.09 0.0
04 01:55 Calm 10.00 Fair CLR 46.4 44.6 93% 30.1 0.0
04 01:35 Calm 10.00 Fair CLR 44.6 44.6 100% 30.09 0.0
04 01:15 Calm 10.00 Fair CLR 46.4 46.4 100% 30.1 0.0
04 00:55 Calm 10.00 Fair CLR 46.4 44.6 93% 30.1 0.0
04 00:35 Calm 10.00 Fair CLR 46.4 44.6 93% 30.1 0.0
04 00:15 Calm 10.00 Fair CLR 48.2 46.4 94% 30.1 0.0
03 23:55 Calm 10.00 Fair CLR 48.2 46.4 94% 30.1 0.0
03 23:35 Calm 10.00 Fair CLR 48.2 46.4 94% 30.1 0.0
03 23:15 Calm 10.00 Fair CLR 50 46.4 88% 30.1 0.0
03 22:55 Calm 10.00 Fair CLR 50 46.4 88% 30.1 0.0
03 22:35 Calm 10.00 Fair CLR 51.8 46.4 82% 30.1 0.0
03 22:15 Calm 10.00 Fair CLR 51.8 46.4 82% 30.09 0.0
03 21:55 Calm 10.00 Fair CLR 51.8 46.4 82% 30.09 0.0
03 21:35 Calm 10.00 Fair CLR 53.6 46.4 77% 30.09 0.0
03 21:15 S 3 10.00 Fair CLR 53.6 46.4 77% 30.08 0.0
03 20:55 Calm 10.00 Fair CLR 55.4 46.4 72% 30.07 0.0
03 20:35 S 3 10.00 Fair CLR 57.2 46.4 67% 30.07 0.0
03 20:15 S 3 10.00 Fair CLR 59 46.4 63% 30.06 0.0
03 19:55 S 3 10.00 Fair CLR 60.8 46.4 59% 30.05 0.0
03 19:35 S 6 10.00 Fair CLR 62.6 44.6 52% 30.05 0.0
03 19:15 Calm 10.00 Fair CLR 64.4 41 43% 30.04 0.0
03 18:55 Calm 10.00 Fair CLR 66.2 39.2 37% 30.04 0.0
03 18:35 W 6 10.00 Fair CLR 66.2 39.2 37% 30.04 0.0
03 18:15 W 5 10.00 Fair CLR 68 39.2 35% 30.04 0.0
03 17:55 NW 3 10.00 Fair CLR 68 37.4 33% 30.05 0.0
03 17:35 W 5 10.00 Fair CLR 68 37.4 33% 30.05 0.0
03 17:15 W 7 10.00 Fair CLR 68 39.2 35% 30.04 0.0
03 16:55 SW 7 10.00 Fair CLR 68 39.2 35% 30.04 0.0
03 16:35 W 5 10.00 Fair CLR 68 39.2 35% 30.05 0.0
03 16:15 Calm 10.00 Fair CLR 68 41 38% 30.05 0.0
03 15:55 S 3 10.00 Fair CLR 66.2 39.2 37% 30.07 0.0
03 15:35 W 7 10.00 Partly Cloudy SCT060 SCT080 68 39.2 35% 30.08 0.0
03 15:15 W 12 10.00 Partly Cloudy SCT060 66.2 39.2 37% 30.09 0.0
03 14:55 W 9 10.00 Partly Cloudy SCT060 66.2 37.4 35% 30.09 0.0
03 14:35 W 7 10.00 Fair CLR 66.2 41 40% 30.09 0.0
03 14:15 NW 9 10.00 Fair CLR 66.2 39.2 37% 30.1 0.0
03 13:55 W 5 10.00 Fair CLR 64.4 39.2 40% 30.11 0.0
03 13:35 W 7 10.00 Fair CLR 64.4 37.4 37% 30.11 0.0
03 13:15 W 6 10.00 Fair CLR 62.6 41 45% 30.12 0.0
03 12:55 NW 5 10.00 Fair CLR 62.6 39.2 42% 30.12 0.0
03 12:35 N 3 10.00 Fair CLR 60.8 37.4 42% 30.13 0.0
03 12:15 N 6 10.00 Fair CLR 60.8 37.4 42% 30.14 0.0
03 11:55 NW 6 10.00 Fair CLR 60.8 37.4 42% 30.14 0.0
03 11:35 N 8 10.00 Fair CLR 60.8 37.4 42% 30.15 0.0
03 11:15 N 7 10.00 Fair CLR 60.8 35.6 39% 30.15 0.0
03 10:55 NE 10 10.00 Fair CLR 60.8 35.6 39% 30.14 0.0
03 10:35 N 9 10.00 Fair CLR 59 35.6 42% 30.14 0.0
03 10:15 N 8 G 17 10.00 Fair CLR 59 37.4 45% 30.13 0.0
03 09:55 N 12 10.00 Fair CLR 55.4 39.2 55% 30.13 0.0
03 09:35 N 9 10.00 Fair CLR 55.4 42.8 63% 30.13 0.0
03 09:15 N 9 10.00 Fair CLR 53.6 42.8 67% 30.12 0.0
03 08:55 N 8 10.00 Fair CLR 48.2 48.2 100% 45 30.13 0.0
03 08:35 N 7 10.00 Fair CLR 46.4 46.4 100% 43 30.13 0.0
03 08:15 N 3 10.00 Fair CLR 46.4 46.4 100% 30.12 0.0
03 07:55 Calm 10.00 Fair CLR 46.4 46.4 100% 30.11 0.0
03 07:35 Calm 5.00 Fog/Mist CLR 44.6 44.6 100% 30.1 0.0
03 07:10 Calm 0.15 Fog VV000 41 41 100% 30.09 0.0
03 06:35 Calm 0.15 Fog VV000 41 41 100% 30.07 0.0
03 06:15 Calm 0.25 Fog VV002 41 41 100% 30.06 0.0
03 05:55 Calm 0.75 Fog/Mist VV005 41 41 100% 30.05 0.0
03 05:35 Calm 1.50 Fog/Mist VV007 41 41 100% 30.05 0.0
Date Time (edt) Wind (mph) Vis. (mi.) Weather Sky Cond. Air Dwpt Max. Min. Relative Humidity Wind Chill (°F) Heat Index (°F) altimeter (in) sea level (mb) 1 hr 3 hr 6 hr
6 hour
Temperature (ºF) Pressure Precipitation (in)